createdAt,value
2022-07-25T00:00:37.000Z,97449
2022-07-25T00:02:44.000Z,97449
2022-07-25T00:04:11.000Z,97446
2022-07-25T00:06:18.000Z,97444
2022-07-25T00:07:44.000Z,97447
2022-07-25T00:09:51.000Z,97444
2022-07-25T00:11:17.000Z,97443
2022-07-25T00:13:24.000Z,97438
2022-07-25T00:14:50.000Z,97439
2022-07-25T00:16:56.000Z,97438
2022-07-25T00:19:47.000Z,97439
2022-07-25T00:21:14.000Z,97436
2022-07-25T00:23:21.000Z,97435
2022-07-25T00:24:47.000Z,97431
2022-07-25T00:26:53.000Z,97433
2022-07-25T00:28:20.000Z,97431
2022-07-25T00:30:26.000Z,97431
2022-07-25T00:31:52.000Z,97432
2022-07-25T00:33:59.000Z,97428
2022-07-25T00:35:25.000Z,97426
2022-07-25T00:37:31.000Z,97421
2022-07-25T00:38:58.000Z,97425
2022-07-25T00:41:04.000Z,97421
2022-07-25T00:42:31.000Z,97417
2022-07-25T00:44:37.000Z,97417
2022-07-25T00:46:03.000Z,97416
2022-07-25T00:48:10.000Z,97413
2022-07-25T00:49:36.000Z,97413
2022-07-25T00:51:42.000Z,97406
2022-07-25T00:53:09.000Z,97406
2022-07-25T00:55:15.000Z,97405
2022-07-25T00:58:06.000Z,97400
2022-07-25T00:59:33.000Z,97397
2022-07-25T01:01:39.000Z,97398
2022-07-25T01:03:06.000Z,97394
2022-07-25T01:05:12.000Z,97389
2022-07-25T01:06:38.000Z,97392
2022-07-25T01:08:45.000Z,97391
2022-07-25T01:10:11.000Z,97393
2022-07-25T01:12:17.000Z,97390
2022-07-25T01:13:44.000Z,97392
2022-07-25T01:15:50.000Z,97388
2022-07-25T01:17:16.000Z,97388
2022-07-25T01:19:23.000Z,97386
2022-07-25T01:20:49.000Z,97384
2022-07-25T01:22:55.000Z,97380
2022-07-25T01:24:22.000Z,97379
2022-07-25T01:26:28.000Z,97380
2022-07-25T01:27:54.000Z,97380
2022-07-25T01:30:02.000Z,97384
2022-07-25T01:31:28.000Z,97380
2022-07-25T01:33:35.000Z,97382
2022-07-25T01:36:26.000Z,97383
2022-07-25T01:37:52.000Z,97381
2022-07-25T01:39:58.000Z,97378
2022-07-25T01:41:25.000Z,97377
2022-07-25T01:43:31.000Z,97370
2022-07-25T01:44:57.000Z,97366
2022-07-25T01:47:04.000Z,97366
2022-07-25T01:48:30.000Z,97367
2022-07-25T01:50:36.000Z,97367
2022-07-25T01:52:03.000Z,97368
2022-07-25T01:54:09.000Z,97362
2022-07-25T01:55:36.000Z,97364
2022-07-25T01:57:43.000Z,97362
2022-07-25T01:59:16.000Z,97358
2022-07-25T02:01:22.000Z,97359
2022-07-25T02:02:49.000Z,97358
2022-07-25T02:04:55.000Z,97360
2022-07-25T02:06:22.000Z,97360
2022-07-25T02:08:28.000Z,97356
2022-07-25T02:09:56.000Z,97351
2022-07-25T02:12:03.000Z,97346
2022-07-25T02:14:54.000Z,97346
2022-07-25T02:16:20.000Z,97342
2022-07-25T02:18:35.000Z,97349
2022-07-25T02:20:01.000Z,97347
2022-07-25T02:22:07.000Z,97341
2022-07-25T02:23:34.000Z,97338
2022-07-25T02:25:40.000Z,97337
2022-07-25T02:27:06.000Z,97340
2022-07-25T02:29:12.000Z,97334
2022-07-25T02:30:39.000Z,97332
2022-07-25T02:32:45.000Z,97329
2022-07-25T02:34:12.000Z,97331
2022-07-25T02:36:18.000Z,97329
2022-07-25T02:37:44.000Z,97329
2022-07-25T02:39:50.000Z,97331
2022-07-25T02:41:17.000Z,97330
2022-07-25T02:43:23.000Z,97327
2022-07-25T02:44:50.000Z,97323
2022-07-25T02:46:56.000Z,97317
2022-07-25T02:48:22.000Z,97324
2022-07-25T02:50:28.000Z,97317
2022-07-25T02:53:20.000Z,97317
2022-07-25T02:55:13.000Z,97316
2022-07-25T02:57:19.000Z,97320
2022-07-25T02:58:46.000Z,97318
2022-07-25T03:00:52.000Z,97319
2022-07-25T03:02:18.000Z,97317
2022-07-25T03:04:24.000Z,97310
2022-07-25T03:05:51.000Z,97308
2022-07-25T03:07:57.000Z,97302
2022-07-25T03:09:24.000Z,97301
2022-07-25T03:11:30.000Z,97299
2022-07-25T03:12:56.000Z,97299
2022-07-25T03:15:02.000Z,97298
2022-07-25T03:16:29.000Z,97293
2022-07-25T03:18:35.000Z,97298
2022-07-25T03:20:02.000Z,97290
2022-07-25T03:22:08.000Z,97295
2022-07-25T03:23:34.000Z,97288
2022-07-25T03:25:41.000Z,97283
2022-07-25T03:27:07.000Z,97280
2022-07-25T03:29:13.000Z,97275
2022-07-25T03:32:05.000Z,97274
2022-07-25T03:33:31.000Z,97270
2022-07-25T03:35:37.000Z,97274
2022-07-25T03:37:04.000Z,97270
2022-07-25T03:39:10.000Z,97270
2022-07-25T03:40:36.000Z,97271
2022-07-25T03:42:43.000Z,97270
2022-07-25T03:44:09.000Z,97273
2022-07-25T03:46:16.000Z,97271
2022-07-25T03:47:42.000Z,97269
2022-07-25T03:49:49.000Z,97271
2022-07-25T03:51:15.000Z,97268
2022-07-25T03:53:21.000Z,97264
2022-07-25T03:54:48.000Z,97268
2022-07-25T03:56:54.000Z,97266
2022-07-25T03:58:20.000Z,97268
2022-07-25T04:00:26.000Z,97263
2022-07-25T04:01:53.000Z,97262
2022-07-25T04:03:59.000Z,97262
2022-07-25T04:05:26.000Z,97258
2022-07-25T04:07:32.000Z,97263
2022-07-25T04:10:23.000Z,97258
2022-07-25T04:11:50.000Z,97256
2022-07-25T04:13:57.000Z,97252
2022-07-25T04:15:23.000Z,97252
2022-07-25T04:17:30.000Z,97253
2022-07-25T04:18:56.000Z,97253
2022-07-25T04:21:02.000Z,97257
2022-07-25T04:22:29.000Z,97251
2022-07-25T04:24:35.000Z,97249
2022-07-25T04:26:02.000Z,97248
2022-07-25T04:28:08.000Z,97249
2022-07-25T04:29:34.000Z,97253
2022-07-25T04:31:41.000Z,97250
2022-07-25T04:33:07.000Z,97249
2022-07-25T04:35:13.000Z,97250
2022-07-25T04:36:40.000Z,97248
2022-07-25T04:38:46.000Z,97247
2022-07-25T04:40:12.000Z,97246
2022-07-25T04:42:18.000Z,97243
2022-07-25T04:43:45.000Z,97237
2022-07-25T04:45:54.000Z,97236
2022-07-25T04:48:46.000Z,97234
2022-07-25T04:50:14.000Z,97230
2022-07-25T04:52:20.000Z,97225
2022-07-25T04:53:47.000Z,97224
2022-07-25T04:55:53.000Z,97221
2022-07-25T04:57:19.000Z,97215
2022-07-25T04:59:25.000Z,97216
2022-07-25T05:00:52.000Z,97217
2022-07-25T05:02:58.000Z,97216
2022-07-25T05:04:25.000Z,97219
2022-07-25T05:06:31.000Z,97219
2022-07-25T05:07:57.000Z,97220
2022-07-25T05:10:03.000Z,97214
2022-07-25T05:11:30.000Z,97208
2022-07-25T05:13:36.000Z,97208
2022-07-25T05:15:03.000Z,97207
2022-07-25T05:17:09.000Z,97206
2022-07-25T05:18:35.000Z,97205
2022-07-25T05:20:41.000Z,97201
2022-07-25T05:22:08.000Z,97205
2022-07-25T05:24:15.000Z,97198
2022-07-25T05:27:06.000Z,97198
2022-07-25T05:28:32.000Z,97195
2022-07-25T05:30:38.000Z,97191
2022-07-25T05:32:06.000Z,97194
2022-07-25T05:34:12.000Z,97190
2022-07-25T05:35:39.000Z,97190
2022-07-25T05:37:45.000Z,97184
2022-07-25T05:39:11.000Z,97186
2022-07-25T05:41:18.000Z,97182
2022-07-25T05:42:44.000Z,97181
2022-07-25T05:44:50.000Z,97171
2022-07-25T05:46:17.000Z,97172
2022-07-25T05:48:23.000Z,97171
2022-07-25T05:49:50.000Z,97169
2022-07-25T05:51:56.000Z,97173
2022-07-25T05:53:23.000Z,97174
2022-07-25T05:55:29.000Z,97167
2022-07-25T05:56:55.000Z,97167
2022-07-25T05:59:01.000Z,97162
2022-07-25T06:00:28.000Z,97164
2022-07-25T06:02:34.000Z,97164
2022-07-25T06:05:26.000Z,97165
2022-07-25T06:06:52.000Z,97164
2022-07-25T06:08:58.000Z,97167
2022-07-25T06:10:26.000Z,97166
2022-07-25T06:12:32.000Z,97161
2022-07-25T06:13:58.000Z,97163
2022-07-25T06:16:05.000Z,97157
2022-07-25T06:17:32.000Z,97153
2022-07-25T06:19:38.000Z,97153
2022-07-25T06:21:05.000Z,97148
2022-07-25T06:23:11.000Z,97147
2022-07-25T06:24:38.000Z,97141
2022-07-25T06:26:44.000Z,97142
2022-07-25T06:28:10.000Z,97139
2022-07-25T06:30:24.000Z,97136
2022-07-25T06:31:50.000Z,97135
2022-07-25T06:33:57.000Z,97132
2022-07-25T06:35:23.000Z,97132
2022-07-25T06:37:29.000Z,97133
2022-07-25T06:38:56.000Z,97133
2022-07-25T06:41:02.000Z,97131
2022-07-25T06:43:53.000Z,97125
2022-07-25T06:45:20.000Z,97119
2022-07-25T06:47:26.000Z,97120
2022-07-25T06:48:52.000Z,97113
2022-07-25T06:50:59.000Z,97117
2022-07-25T06:52:25.000Z,97123
2022-07-25T06:54:32.000Z,97121
2022-07-25T06:55:58.000Z,97121
2022-07-25T06:58:04.000Z,97118
2022-07-25T06:59:31.000Z,97114
2022-07-25T07:01:37.000Z,97108
2022-07-25T07:03:03.000Z,97107
2022-07-25T07:05:10.000Z,97103
2022-07-25T07:06:36.000Z,97106
2022-07-25T07:08:42.000Z,97100
2022-07-25T07:10:09.000Z,97101
2022-07-25T07:12:15.000Z,97103
2022-07-25T07:13:42.000Z,97098
2022-07-25T07:15:48.000Z,97093
2022-07-25T07:17:14.000Z,97091
2022-07-25T07:19:21.000Z,97092
2022-07-25T07:22:12.000Z,97086
2022-07-25T07:23:39.000Z,97090
2022-07-25T07:25:46.000Z,97081
2022-07-25T07:27:12.000Z,97080
2022-07-25T07:29:19.000Z,97078
2022-07-25T07:30:45.000Z,97076
2022-07-25T07:33:22.000Z,97075
2022-07-25T07:34:48.000Z,97070
2022-07-25T07:36:54.000Z,97070
2022-07-25T07:38:21.000Z,97070
2022-07-25T07:40:27.000Z,97068
2022-07-25T07:41:54.000Z,97063
2022-07-25T07:44:00.000Z,97058
2022-07-25T07:45:26.000Z,97058
2022-07-25T07:47:33.000Z,97056
2022-07-25T07:48:59.000Z,97054
2022-07-25T07:51:06.000Z,97053
2022-07-25T07:52:32.000Z,97052
2022-07-25T07:54:38.000Z,97051
2022-07-25T07:56:05.000Z,97047
2022-07-25T07:58:11.000Z,97047
2022-07-25T08:01:02.000Z,97043
2022-07-25T08:02:29.000Z,97041
2022-07-25T08:04:35.000Z,97038
2022-07-25T08:06:02.000Z,97039
2022-07-25T08:08:08.000Z,97042
2022-07-25T08:09:34.000Z,97039
2022-07-25T08:11:41.000Z,97038
2022-07-25T08:13:07.000Z,97036
2022-07-25T08:15:13.000Z,97034
2022-07-25T08:16:40.000Z,97035
2022-07-25T08:18:46.000Z,97027
2022-07-25T08:20:13.000Z,97030
2022-07-25T08:22:43.000Z,97025
2022-07-25T08:24:10.000Z,97026
2022-07-25T08:26:17.000Z,97026
2022-07-25T08:27:43.000Z,97028
2022-07-25T08:29:50.000Z,97032
2022-07-25T08:31:16.000Z,97027
2022-07-25T08:33:22.000Z,97025
2022-07-25T08:34:49.000Z,97020
2022-07-25T08:36:55.000Z,97018
2022-07-25T08:39:47.000Z,97027
2022-07-25T08:41:13.000Z,97027
2022-07-25T08:43:19.000Z,97025
2022-07-25T08:44:46.000Z,97026
2022-07-25T08:46:52.000Z,97028
2022-07-25T08:48:19.000Z,97024
2022-07-25T08:50:25.000Z,97023
2022-07-25T08:51:52.000Z,97024
2022-07-25T08:53:58.000Z,97030
2022-07-25T08:55:24.000Z,97029
2022-07-25T08:57:31.000Z,97021
2022-07-25T08:58:57.000Z,97033
2022-07-25T09:01:03.000Z,97022
2022-07-25T09:02:30.000Z,97024
2022-07-25T09:04:36.000Z,97022
2022-07-25T09:06:03.000Z,97018
2022-07-25T09:08:09.000Z,97010
2022-07-25T09:09:35.000Z,97015
2022-07-25T09:11:41.000Z,97011
2022-07-25T09:13:08.000Z,97010
2022-07-25T09:15:14.000Z,97018
2022-07-25T09:18:07.000Z,97008
2022-07-25T09:19:37.000Z,97001
2022-07-25T09:21:43.000Z,97002
2022-07-25T09:23:11.000Z,97004
2022-07-25T09:25:17.000Z,97000
2022-07-25T09:26:44.000Z,96991
2022-07-25T09:28:50.000Z,96995
2022-07-25T09:30:17.000Z,96996
2022-07-25T09:32:23.000Z,97001
2022-07-25T09:33:49.000Z,96998
2022-07-25T09:35:56.000Z,96997
2022-07-25T09:37:22.000Z,96993
2022-07-25T09:39:28.000Z,96995
2022-07-25T09:40:55.000Z,96988
2022-07-25T09:43:01.000Z,96991
2022-07-25T09:44:28.000Z,96992
2022-07-25T09:46:34.000Z,96996
2022-07-25T09:48:01.000Z,96989
2022-07-25T09:50:07.000Z,96988
2022-07-25T09:51:34.000Z,96993
2022-07-25T09:53:40.000Z,96980
2022-07-25T09:56:31.000Z,96980
2022-07-25T09:57:58.000Z,96976
2022-07-25T10:00:04.000Z,96971
2022-07-25T10:01:30.000Z,96973
2022-07-25T10:03:37.000Z,96971
2022-07-25T10:05:03.000Z,96963
2022-07-25T10:07:09.000Z,96966
2022-07-25T10:08:36.000Z,96972
2022-07-25T10:10:42.000Z,96966
2022-07-25T10:12:09.000Z,96959
2022-07-25T10:14:15.000Z,96957
2022-07-25T10:15:41.000Z,96955
2022-07-25T10:17:47.000Z,96952
2022-07-25T10:19:14.000Z,96955
2022-07-25T10:21:20.000Z,96950
2022-07-25T10:22:53.000Z,96946
2022-07-25T10:25:03.000Z,96948
2022-07-25T10:26:30.000Z,96947
2022-07-25T10:28:36.000Z,96949
2022-07-25T10:30:02.000Z,96948
2022-07-25T10:32:09.000Z,96949
2022-07-25T10:35:00.000Z,96939
2022-07-25T10:36:26.000Z,96933
2022-07-25T10:38:33.000Z,96935
2022-07-25T10:39:59.000Z,96930
2022-07-25T10:42:05.000Z,96925
2022-07-25T10:43:32.000Z,96927
2022-07-25T10:45:38.000Z,96927
2022-07-25T10:47:05.000Z,96931
2022-07-25T10:49:11.000Z,96923
2022-07-25T10:50:38.000Z,96915
2022-07-25T10:53:01.000Z,96914
2022-07-25T10:54:28.000Z,96914
2022-07-25T10:56:34.000Z,96906
2022-07-25T10:58:00.000Z,96911
2022-07-25T11:00:23.000Z,96912
2022-07-25T11:01:49.000Z,96915
2022-07-25T11:03:56.000Z,96907
2022-07-25T11:05:22.000Z,96909
2022-07-25T11:07:28.000Z,96908
2022-07-25T11:08:55.000Z,96910
2022-07-25T11:11:01.000Z,96910
2022-07-25T11:13:52.000Z,96913
2022-07-25T11:15:19.000Z,96914
2022-07-25T11:17:25.000Z,96902
2022-07-25T11:18:51.000Z,96911
2022-07-25T11:20:58.000Z,96913
2022-07-25T11:22:30.000Z,96905
2022-07-25T11:24:36.000Z,96898
2022-07-25T11:26:03.000Z,96895
2022-07-25T11:28:09.000Z,96901
2022-07-25T11:29:36.000Z,96903
2022-07-25T11:31:42.000Z,96908
2022-07-25T11:33:08.000Z,96901
2022-07-25T11:35:15.000Z,96901
2022-07-25T11:36:41.000Z,96895
2022-07-25T11:38:47.000Z,96895
2022-07-25T11:40:14.000Z,96883
2022-07-25T11:42:20.000Z,96879
2022-07-25T11:43:47.000Z,96885
2022-07-25T11:45:53.000Z,96878
2022-07-25T11:47:20.000Z,96883
2022-07-25T11:49:26.000Z,96899
2022-07-25T11:52:17.000Z,96893
2022-07-25T11:53:44.000Z,96887
2022-07-25T11:55:50.000Z,96882
2022-07-25T11:57:16.000Z,96880
2022-07-25T11:59:23.000Z,96882
2022-07-25T12:00:49.000Z,96882
2022-07-25T12:02:56.000Z,96871
2022-07-25T12:04:22.000Z,96868
2022-07-25T12:06:29.000Z,96877
2022-07-25T12:07:55.000Z,96878
2022-07-25T12:10:01.000Z,96869
2022-07-25T12:11:28.000Z,96875
2022-07-25T12:13:34.000Z,96874
2022-07-25T12:15:00.000Z,96874
2022-07-25T12:17:07.000Z,96874
2022-07-25T12:18:33.000Z,96872
2022-07-25T12:20:40.000Z,96875
2022-07-25T12:22:06.000Z,96876
2022-07-25T12:24:12.000Z,96881
2022-07-25T12:25:39.000Z,96876
2022-07-25T12:27:45.000Z,96877
2022-07-25T12:30:36.000Z,96880
2022-07-25T12:32:03.000Z,96881
2022-07-25T12:34:10.000Z,96881
2022-07-25T12:35:36.000Z,96871
2022-07-25T12:37:42.000Z,96865
2022-07-25T12:39:10.000Z,96871
2022-07-25T12:41:16.000Z,96878
2022-07-25T12:42:44.000Z,96874
2022-07-25T12:44:50.000Z,96873
2022-07-25T12:46:17.000Z,96865
2022-07-25T12:48:23.000Z,96869
2022-07-25T12:49:50.000Z,96881
2022-07-25T12:51:56.000Z,96877
2022-07-25T12:53:24.000Z,96877
2022-07-25T12:55:30.000Z,96870
2022-07-25T12:56:57.000Z,96871
2022-07-25T12:59:03.000Z,96861
2022-07-25T13:00:30.000Z,96871
2022-07-25T13:02:36.000Z,96872
2022-07-25T13:04:03.000Z,96870
2022-07-25T13:06:09.000Z,96865
2022-07-25T13:09:00.000Z,96867
2022-07-25T13:10:27.000Z,96867
2022-07-25T13:12:33.000Z,96861
2022-07-25T13:14:00.000Z,96856
2022-07-25T13:16:06.000Z,96858
2022-07-25T13:17:32.000Z,96847
2022-07-25T13:19:39.000Z,96845
2022-07-25T13:21:05.000Z,96842
2022-07-25T13:23:11.000Z,96836
2022-07-25T13:24:38.000Z,96828
2022-07-25T13:26:44.000Z,96837
2022-07-25T13:28:11.000Z,96838
2022-07-25T13:30:17.000Z,96837
2022-07-25T13:31:43.000Z,96834
2022-07-25T13:33:50.000Z,96830
2022-07-25T13:35:16.000Z,96826
2022-07-25T13:37:27.000Z,96836
2022-07-25T13:38:53.000Z,96838
2022-07-25T13:40:59.000Z,96853
2022-07-25T13:42:26.000Z,96860
2022-07-25T13:44:32.000Z,96889
2022-07-25T13:47:24.000Z,96910
2022-07-25T13:48:56.000Z,96913
2022-07-25T13:51:02.000Z,96900
2022-07-25T13:52:29.000Z,96908
2022-07-25T13:54:35.000Z,96918
2022-07-25T13:56:02.000Z,96913
2022-07-25T13:58:08.000Z,96910
2022-07-25T13:59:34.000Z,96910
2022-07-25T14:01:41.000Z,96904
2022-07-25T14:03:07.000Z,96895
2022-07-25T14:05:13.000Z,96896
2022-07-25T14:06:40.000Z,96887
2022-07-25T14:08:46.000Z,96878
2022-07-25T14:10:13.000Z,96872
2022-07-25T14:12:19.000Z,96867
2022-07-25T14:13:45.000Z,96877
2022-07-25T14:15:51.000Z,96884
2022-07-25T14:17:18.000Z,96895
2022-07-25T14:19:24.000Z,96900
2022-07-25T14:20:51.000Z,96894
2022-07-25T14:22:57.000Z,96897
2022-07-25T14:25:48.000Z,96896
2022-07-25T14:27:15.000Z,96889
2022-07-25T14:29:21.000Z,96895
2022-07-25T14:30:53.000Z,96896
2022-07-25T14:32:59.000Z,96895
2022-07-25T14:34:26.000Z,96899
2022-07-25T14:36:32.000Z,96892
2022-07-25T14:37:59.000Z,96888
2022-07-25T14:40:05.000Z,96887
2022-07-25T14:41:32.000Z,96884
2022-07-25T14:43:38.000Z,96885
2022-07-25T14:45:05.000Z,96880
2022-07-25T14:47:11.000Z,96872
2022-07-25T14:48:39.000Z,96867
2022-07-25T14:50:45.000Z,96867
2022-07-25T14:52:12.000Z,96864
2022-07-25T14:54:18.000Z,96864
2022-07-25T14:55:44.000Z,96864
2022-07-25T14:57:51.000Z,96858
2022-07-25T14:59:17.000Z,96859
2022-07-25T15:01:23.000Z,96861
2022-07-25T15:04:15.000Z,96865
2022-07-25T15:05:41.000Z,96862
2022-07-25T15:07:47.000Z,96859
2022-07-25T15:09:14.000Z,96856
2022-07-25T15:11:20.000Z,96855
2022-07-25T15:12:47.000Z,96858
2022-07-25T15:14:53.000Z,96854
2022-07-25T15:16:19.000Z,96856
2022-07-25T15:18:25.000Z,96852
2022-07-25T15:19:52.000Z,96849
2022-07-25T15:21:58.000Z,96843
2022-07-25T15:23:25.000Z,96843
2022-07-25T15:25:35.000Z,96845
2022-07-25T15:27:28.000Z,96840
2022-07-25T15:29:34.000Z,96848
2022-07-25T15:31:01.000Z,96837
2022-07-25T15:33:07.000Z,96835
2022-07-25T15:34:34.000Z,96838
2022-07-25T15:36:40.000Z,96846
2022-07-25T15:38:07.000Z,96840
2022-07-25T15:40:13.000Z,96835
2022-07-25T15:43:04.000Z,96821
2022-07-25T15:44:31.000Z,96823
2022-07-25T15:46:37.000Z,96818
2022-07-25T15:48:04.000Z,96817
2022-07-25T15:50:10.000Z,96819
2022-07-25T15:51:36.000Z,96814
2022-07-25T15:53:43.000Z,96817
2022-07-25T15:55:09.000Z,96822
2022-07-25T15:57:15.000Z,96813
2022-07-25T15:58:42.000Z,96813
2022-07-25T16:00:48.000Z,96809
2022-07-25T16:02:15.000Z,96805
2022-07-25T16:04:21.000Z,96816
2022-07-25T16:05:48.000Z,96808
2022-07-25T16:07:54.000Z,96807
2022-07-25T16:09:21.000Z,96805
2022-07-25T16:11:27.000Z,96801
2022-07-25T16:12:53.000Z,96794
2022-07-25T16:14:59.000Z,96786
2022-07-25T16:16:26.000Z,96793
2022-07-25T16:18:32.000Z,96790
2022-07-25T16:21:24.000Z,96794
2022-07-25T16:22:50.000Z,96793
2022-07-25T16:24:57.000Z,96786
2022-07-25T16:26:23.000Z,96784
2022-07-25T16:28:29.000Z,96792
2022-07-25T16:29:56.000Z,96792
2022-07-25T16:32:03.000Z,96791
2022-07-25T16:33:29.000Z,96797
2022-07-25T16:35:35.000Z,96791
2022-07-25T16:37:02.000Z,96790
2022-07-25T16:39:08.000Z,96774
2022-07-25T16:40:35.000Z,96770
2022-07-25T16:42:41.000Z,96772
2022-07-25T16:44:08.000Z,96779
2022-07-25T16:46:14.000Z,96783
2022-07-25T16:47:41.000Z,96776
2022-07-25T16:49:47.000Z,96770
2022-07-25T16:51:14.000Z,96767
2022-07-25T16:53:20.000Z,96760
2022-07-25T16:54:46.000Z,96754
2022-07-25T16:56:52.000Z,96750
2022-07-25T16:59:46.000Z,96757
2022-07-25T17:01:13.000Z,96784
2022-07-25T17:03:19.000Z,96840
2022-07-25T17:04:46.000Z,96861
2022-07-25T17:06:52.000Z,96993
2022-07-25T17:08:18.000Z,96972
2022-07-25T17:10:25.000Z,96958
2022-07-25T17:11:51.000Z,96900
2022-07-25T17:13:57.000Z,96923
2022-07-25T17:15:24.000Z,96926
2022-07-25T17:17:30.000Z,96922
2022-07-25T17:18:57.000Z,96924
2022-07-25T17:21:03.000Z,96912
2022-07-25T17:22:29.000Z,96879
2022-07-25T17:24:36.000Z,96888
2022-07-25T17:26:02.000Z,96914
2022-07-25T17:28:08.000Z,96899
2022-07-25T17:29:35.000Z,96910
2022-07-25T17:31:41.000Z,96910
2022-07-25T17:33:08.000Z,96908
2022-07-25T17:35:14.000Z,96904
2022-07-25T17:38:05.000Z,96906
2022-07-25T17:39:34.000Z,96905
2022-07-25T17:41:40.000Z,96909
2022-07-25T17:43:06.000Z,96909
2022-07-25T17:45:13.000Z,96907
2022-07-25T17:46:39.000Z,96910
2022-07-25T17:48:45.000Z,96911
2022-07-25T17:50:12.000Z,96909
2022-07-25T17:52:18.000Z,96910
2022-07-25T17:53:45.000Z,96911
2022-07-25T17:55:51.000Z,96912
2022-07-25T17:57:18.000Z,96911
2022-07-25T17:59:24.000Z,96907
2022-07-25T18:00:50.000Z,96915
2022-07-25T18:02:56.000Z,96922
2022-07-25T18:04:23.000Z,96924
2022-07-25T18:06:29.000Z,96927
2022-07-25T18:07:56.000Z,96931
2022-07-25T18:10:02.000Z,96940
2022-07-25T18:11:29.000Z,96939
2022-07-25T18:13:35.000Z,96943
2022-07-25T18:16:26.000Z,96942
2022-07-25T18:17:53.000Z,96947
2022-07-25T18:19:59.000Z,96946
2022-07-25T18:21:26.000Z,96951
2022-07-25T18:23:32.000Z,96956
2022-07-25T18:27:38.000Z,96965
2022-07-25T18:29:04.000Z,96968
2022-07-25T18:31:10.000Z,96970
2022-07-25T18:32:37.000Z,96969
2022-07-25T18:34:43.000Z,96971
2022-07-25T18:36:10.000Z,96975
2022-07-25T18:38:16.000Z,96977
2022-07-25T18:39:42.000Z,96977
2022-07-25T18:41:49.000Z,96988
2022-07-25T18:43:15.000Z,96988
2022-07-25T18:45:22.000Z,96996
2022-07-25T18:46:50.000Z,97001
2022-07-25T18:48:56.000Z,97006
2022-07-25T18:50:23.000Z,97009
2022-07-25T18:52:29.000Z,97007
2022-07-25T18:55:20.000Z,97018
2022-07-25T18:56:46.000Z,97019
2022-07-25T18:58:53.000Z,97029
2022-07-25T19:00:19.000Z,97036
2022-07-25T19:02:26.000Z,97043
2022-07-25T19:03:52.000Z,97042
2022-07-25T19:05:58.000Z,97048
2022-07-25T19:07:29.000Z,97048
2022-07-25T19:09:36.000Z,97055
2022-07-25T19:11:02.000Z,97056
2022-07-25T19:13:08.000Z,97062
2022-07-25T19:14:48.000Z,97065
2022-07-25T19:16:54.000Z,97071
2022-07-25T19:18:20.000Z,97080
2022-07-25T19:20:32.000Z,97088
2022-07-25T19:21:58.000Z,97091
2022-07-25T19:24:05.000Z,97092
2022-07-25T19:25:32.000Z,97100
2022-07-25T19:27:38.000Z,97110
2022-07-25T19:29:05.000Z,97114
2022-07-25T19:31:11.000Z,97120
2022-07-25T19:34:02.000Z,97123
2022-07-25T19:35:28.000Z,97129
2022-07-25T19:37:35.000Z,97137
2022-07-25T19:39:01.000Z,97132
2022-07-25T19:41:08.000Z,97137
2022-07-25T19:42:34.000Z,97135
2022-07-25T19:44:40.000Z,97139
2022-07-25T19:46:07.000Z,97140
2022-07-25T19:48:13.000Z,97144
2022-07-25T19:49:40.000Z,97146
2022-07-25T19:51:46.000Z,97144
2022-07-25T19:53:12.000Z,97146
2022-07-25T19:55:18.000Z,97146
2022-07-25T19:56:45.000Z,97148
2022-07-25T19:58:51.000Z,97148
2022-07-25T20:00:18.000Z,97156
2022-07-25T20:02:24.000Z,97154
2022-07-25T20:03:51.000Z,97160
2022-07-25T20:05:57.000Z,97169
2022-07-25T20:07:24.000Z,97182
2022-07-25T20:09:30.000Z,97178
2022-07-25T20:12:21.000Z,97186
2022-07-25T20:13:48.000Z,97186
2022-07-25T20:15:54.000Z,97190
2022-07-25T20:17:21.000Z,97189
2022-07-25T20:19:27.000Z,97190
2022-07-25T20:20:53.000Z,97191
2022-07-25T20:22:59.000Z,97186
2022-07-25T20:24:26.000Z,97181
2022-07-25T20:26:32.000Z,97185
2022-07-25T20:27:59.000Z,97186
2022-07-25T20:30:05.000Z,97193
2022-07-25T20:31:32.000Z,97194
2022-07-25T20:33:38.000Z,97193
2022-07-25T20:35:04.000Z,97202
2022-07-25T20:37:11.000Z,97209
2022-07-25T20:38:39.000Z,97209
2022-07-25T20:40:46.000Z,97212
2022-07-25T20:42:16.000Z,97214
2022-07-25T20:44:22.000Z,97220
2022-07-25T20:45:48.000Z,97218
2022-07-25T20:47:55.000Z,97216
2022-07-25T20:50:46.000Z,97214
2022-07-25T20:52:13.000Z,97211
2022-07-25T20:54:19.000Z,97213
2022-07-25T20:55:45.000Z,97211
2022-07-25T20:57:52.000Z,97219
2022-07-25T20:59:18.000Z,97222
2022-07-25T21:01:24.000Z,97227
2022-07-25T21:02:51.000Z,97223
2022-07-25T21:04:57.000Z,97226
2022-07-25T21:06:24.000Z,97228
2022-07-25T21:08:33.000Z,97228
2022-07-25T21:10:00.000Z,97229
2022-07-25T21:12:06.000Z,97233
2022-07-25T21:13:32.000Z,97242
2022-07-25T21:15:39.000Z,97248
2022-07-25T21:17:05.000Z,97250
2022-07-25T21:19:12.000Z,97254
2022-07-25T21:20:38.000Z,97258
2022-07-25T21:22:44.000Z,97260
2022-07-25T21:24:11.000Z,97262
2022-07-25T21:26:17.000Z,97262
2022-07-25T21:29:08.000Z,97267
2022-07-25T21:30:36.000Z,97270
2022-07-25T21:32:42.000Z,97277
2022-07-25T21:34:08.000Z,97281
2022-07-25T21:36:14.000Z,97278
2022-07-25T21:37:41.000Z,97282
2022-07-25T21:39:47.000Z,97289
2022-07-25T21:41:14.000Z,97291
2022-07-25T21:43:20.000Z,97299
2022-07-25T21:44:46.000Z,97296
2022-07-25T21:46:53.000Z,97297
2022-07-25T21:48:19.000Z,97301
2022-07-25T21:50:28.000Z,97299
2022-07-25T21:51:54.000Z,97299
2022-07-25T21:54:03.000Z,97297
2022-07-25T21:55:30.000Z,97298
2022-07-25T21:57:36.000Z,97307
2022-07-25T21:59:03.000Z,97308
2022-07-25T22:01:09.000Z,97305
2022-07-25T22:02:36.000Z,97303
2022-07-25T22:04:42.000Z,97307
2022-07-25T22:07:33.000Z,97305
2022-07-25T22:09:00.000Z,97304
2022-07-25T22:11:06.000Z,97312
2022-07-25T22:13:04.000Z,97319
2022-07-25T22:15:11.000Z,97317
2022-07-25T22:16:38.000Z,97317
2022-07-25T22:18:44.000Z,97325
2022-07-25T22:20:11.000Z,97325
2022-07-25T22:22:17.000Z,97324
2022-07-25T22:23:44.000Z,97328
2022-07-25T22:25:50.000Z,97327
2022-07-25T22:27:17.000Z,97332
2022-07-25T22:29:23.000Z,97330
2022-07-25T22:30:49.000Z,97329
2022-07-25T22:32:56.000Z,97330
2022-07-25T22:34:22.000Z,97332
2022-07-25T22:36:28.000Z,97337
2022-07-25T22:37:55.000Z,97332
2022-07-25T22:40:01.000Z,97335
2022-07-25T22:41:28.000Z,97337
2022-07-25T22:43:34.000Z,97341
2022-07-25T22:46:50.000Z,97346
2022-07-25T22:48:16.000Z,97349
2022-07-25T22:50:22.000Z,97352
2022-07-25T22:51:49.000Z,97355
2022-07-25T22:53:55.000Z,97350
2022-07-25T22:55:22.000Z,97349
2022-07-25T22:57:28.000Z,97349
2022-07-25T22:58:54.000Z,97351
2022-07-25T23:01:00.000Z,97357
2022-07-25T23:02:27.000Z,97352
2022-07-25T23:04:33.000Z,97347
2022-07-25T23:06:00.000Z,97346
2022-07-25T23:08:06.000Z,97345
2022-07-25T23:09:32.000Z,97343
2022-07-25T23:11:42.000Z,97340
2022-07-25T23:13:09.000Z,97338
2022-07-25T23:15:15.000Z,97337
2022-07-25T23:16:42.000Z,97337
2022-07-25T23:18:48.000Z,97335
2022-07-25T23:20:15.000Z,97339
2022-07-25T23:22:21.000Z,97345
2022-07-25T23:25:12.000Z,97347
2022-07-25T23:26:39.000Z,97347
2022-07-25T23:28:45.000Z,97346
2022-07-25T23:30:11.000Z,97348
2022-07-25T23:32:18.000Z,97342
2022-07-25T23:33:44.000Z,97340
2022-07-25T23:35:50.000Z,97341
2022-07-25T23:37:17.000Z,97341